Latest Coastal Weather Observations for McCluer Island

IDD60701

Issued at 12:01 am CST Tuesday 5 March 2024 (issued every 10 minutes, with the page automatically refreshed every 10 minutes)

About coastal observations | Map of coastal stations | Coastal observations for NT | Marine services | Other Formats
Station Details ID: 014274 Name: MCCLUER ISLAND Lat: -11.05 Lon: 132.98 Height: 1.4 m
Data from the previous 72 hours. | See also: Recent months at McCluer Island
Date/Time
CST
Wind Sea
Height
m
Swell Vis
km
Cloud Weather Temp
°C
Press
MSL
hPa
Rain since
9am
mm
Dir  Spd
kts
Gust
kts
Height
m
Period
s
Dir
05/12:00am SSW 9 11 - - - - - - - 29.2 1008.1 6.2
 
Date/Time
CST
Wind Sea
Height
m
Swell Vis
km
Cloud Weather Temp
°C
Press
MSL
hPa
Rain since
9am
mm
Dir  Spd
kts
Gust
kts
Height
m
Period
s
Dir
04/11:30pm SW 7 8 - - - - - - - 29.1 1008.6 6.2
04/11:00pm SW 8 10 - - - - - - - 29.4 1008.8 6.2
04/10:30pm WSW 8 11 - - - - - - - 29.3 1008.3 6.2
04/10:00pm W 7 9 - - - - - - - 29.3 1008.3 6.2
04/09:30pm W 9 11 - - - - - - - 29.3 1008.0 6.2
04/09:00pm W 11 13 - - - - - - Recent precip. 29.3 1007.7 6.2
04/08:30pm W 9 11 - - - - - - - 29.3 1007.8 6.0
04/08:00pm W 10 12 - - - - - - - 29.3 1007.6 6.0
04/07:30pm WNW 9 11 - - - - - - - 29.4 1007.8 6.0
04/07:00pm WNW 9 10 - - - - - - - 29.3 1007.8 6.0
04/06:30pm NNW 8 9 - - - - - - - 29.4 1007.7 6.0
04/06:00pm NW 8 10 - - - - - - - 29.7 1007.2 6.0
04/05:30pm NW 7 8 - - - - - - - 29.8 1007.3 6.0
04/05:00pm NW 7 9 - - - - - - - 30.2 1007.6 6.0
04/04:30pm NW 8 9 - - - - - - - 30.0 1007.7 6.0
04/04:00pm NW 7 8 - - - - - - - 30.6 1007.7 6.0
04/03:30pm NW 5 7 - - - - - - - 30.4 1007.8 6.0
04/03:00pm NNW 6 8 - - - - - - - 30.5 1007.5 6.0
04/02:30pm NNW 6 6 - - - - - - - 30.1 1007.8 6.0
04/02:00pm S 5 8 - - - - - - - 30.2 1008.2 6.0
04/01:30pm ENE 3 6 - - - - - - - 29.7 1008.8 6.0
04/01:00pm ENE 3 7 - - - - - - - 29.3 1009.3 6.0
04/12:30pm WNW 5 6 - - - - - - - 27.9 1010.0 6.0
04/12:00pm N 6 8 - - - - - - Recent precip. 27.3 1010.5 5.8
04/11:30am NE 4 6 - - - - - - - 26.8 1010.8 5.8
04/11:00am NE 6 7 - - - - - - - 27.4 1011.1 0.6
04/10:30am NE 6 8 - - - - - - - 28.2 1011.1 0.2
04/10:00am CALM 0 3 - - - - - - - 29.0 1011.2 0.2
04/09:30am S 4 5 - - - - - - - 28.9 1011.3 0.2
04/09:00am CALM 0 3 - - - - - - - 28.7 1011.0 2.4
04/08:30am ESE 4 5 - - - - - - - 28.0 1010.6 2.4
04/08:00am ESE 3 4 - - - - - - - 27.9 1010.4 2.4
04/07:30am CALM 0 1 - - - - - - - 27.6 1010.3 2.4
04/07:00am SSE 4 10 - - - - - - - 27.2 1010.0 2.4
04/06:30am SSW 2 5 - - - - - - - 27.2 1009.6 2.4
04/06:00am SSE 4 5 - - - - - - Rain 26.7 1009.5 2.4
04/05:30am S 6 7 - - - - - - - 26.7 1009.3 1.4
04/05:00am S 6 8 - - - - - - - 26.7 1009.2 0.6
04/04:30am S 13 17 - - - - - - - 27.4 1008.9 0.0
04/04:00am SW 9 11 - - - - - - - 29.3 1009.5 0.0
04/03:30am W 6 8 - - - - - - - 29.3 1009.1 0.0
04/03:00am W 6 8 - - - - - - - 29.2 1008.8 0.0
04/02:30am W 7 9 - - - - - - - 29.2 1009.1 0.0
04/02:00am W 6 8 - - - - - - - 29.2 1009.1 0.0
04/01:30am WSW 6 8 - - - - - - - 29.3 1009.7 0.0
04/01:00am WSW 6 8 - - - - - - - 29.3 1010.4 0.0
04/12:30am WSW 7 9 - - - - - - - 29.3 1010.4 0.0
04/12:00am SW 9 11 - - - - - - - 29.5 1010.6 0.0
 
Date/Time
CST
Wind Sea
Height
m
Swell Vis
km
Cloud Weather Temp
°C
Press
MSL
hPa
Rain since
9am
mm
Dir  Spd
kts
Gust
kts
Height
m
Period
s
Dir
03/11:30pm WSW 9 10 - - - - - - - 29.5 1010.6 0.0
03/11:00pm WSW 8 9 - - - - - - - 29.7 1010.6 0.0
03/10:30pm SW 9 10 - - - - - - - 29.7 1010.6 0.0
03/10:00pm SW 10 11 - - - - - - - 29.8 1010.4 0.0
03/09:30pm WSW 9 11 - - - - - - - 29.6 1009.9 0.0
03/09:00pm WSW 8 10 - - - - - - - 29.8 1009.6 0.0
03/08:30pm W 7 9 - - - - - - - 29.8 1009.3 0.0
03/08:00pm W 7 8 - - - - - - - 29.7 1008.8 0.0
03/07:30pm WSW 7 8 - - - - - - - 29.9 1008.4 0.0
03/07:00pm W 7 9 - - - - - - - 30.1 1008.3 0.0
03/06:30pm W 6 7 - - - - - - - 30.5 1008.2 0.0
03/06:00pm NW 6 7 - - - - - - - 30.6 1007.8 0.0
03/05:30pm NNW 5 7 - - - - - - - 30.9 1007.4 0.0
03/05:00pm N 6 7 - - - - - - - 30.9 1007.4 0.0
03/04:30pm NNW 7 8 - - - - - - - 31.6 1007.6 0.0
03/04:00pm NNW 7 8 - - - - - - - 31.4 1008.0 0.0
03/03:30pm N 6 7 - - - - - - - 31.1 1008.4 0.0
03/03:00pm N 7 8 - - - - - - - 31.3 1008.7 0.0
03/02:30pm N 6 7 - - - - - - - 31.5 1009.2 0.0
03/02:00pm N 4 5 - - - - - - - 31.9 1009.4 0.0
03/01:30pm N 5 6 - - - - - - - 31.6 1009.5 0.0
03/01:00pm NW 4 6 - - - - - - - 32.2 1009.9 0.0
03/12:30pm NW 5 6 - - - - - - - 32.2 1010.5 0.0
03/12:00pm WNW 4 5 - - - - - - - 32.5 1010.8 0.0
03/11:30am NW 5 5 - - - - - - - 31.8 1011.0 0.0
03/11:00am W 4 6 - - - - - - - 31.7 1011.2 0.0
03/10:30am W 4 5 - - - - - - - 31.3 1011.5 0.0
03/10:00am WSW 4 5 - - - - - - - 31.5 1011.6 0.0
03/09:30am WSW 5 6 - - - - - - - 30.9 1011.7 0.0
03/09:00am SSE 5 7 - - - - - - - 30.6 1011.6 0.0
03/08:30am SE 6 7 - - - - - - - 30.0 1011.2 0.0
03/08:00am S 7 9 - - - - - - - 29.6 1010.9 0.0
03/07:30am CALM 0 4 - - - - - - - 29.2 1010.7 0.0
03/07:00am CALM 0 1 - - - - - - - 28.7 1010.4 0.0
03/06:30am SSE 1 6 - - - - - - - 28.8 1010.0 0.0
03/06:00am SW 6 8 - - - - - - - 28.9 1009.7 0.0
03/05:30am SW 6 7 - - - - - - - 28.9 1009.6 0.0
03/05:00am WSW 6 7 - - - - - - - 29.0 1009.4 0.0
03/04:30am W 6 7 - - - - - - - 28.9 1009.4 0.0
03/04:00am WSW 7 8 - - - - - - - 29.2 1009.3 0.0
03/03:30am WSW 7 8 - - - - - - - 29.2 1009.3 0.0
03/03:00am WSW 7 9 - - - - - - - 29.1 1009.3 0.0
03/02:30am WSW 6 8 - - - - - - - 29.1 1009.6 0.0
03/02:00am W 6 8 - - - - - - - 29.3 1010.3 0.0
03/01:30am W 7 8 - - - - - - - 29.3 1010.6 0.0
03/01:00am WSW 6 8 - - - - - - - 29.5 1010.8 0.0
03/12:30am W 6 8 - - - - - - - 29.3 1010.6 0.0
03/12:00am W 8 9 - - - - - - - 29.6 1010.6 0.0
 
Date/Time
CST
Wind Sea
Height
m
Swell Vis
km
Cloud Weather Temp
°C
Press
MSL
hPa
Rain since
9am
mm
Dir  Spd
kts
Gust
kts
Height
m
Period
s
Dir
02/11:30pm WNW 8 9 - - - - - - - 29.5 1011.0 0.0
02/11:00pm WNW 9 10 - - - - - - - 29.5 1010.9 0.0
02/10:30pm WNW 10 11 - - - - - - - 29.6 1010.7 0.0
02/10:00pm WNW 11 12 - - - - - - - 29.5 1010.1 0.0
02/09:30pm WNW 9 11 - - - - - - - 29.6 1009.7 0.0
02/09:00pm WNW 9 11 - - - - - - - 29.5 1009.6 0.0
02/08:30pm W 7 9 - - - - - - - 29.5 1009.2 0.0
02/08:00pm W 6 8 - - - - - - - 29.7 1009.1 0.0
02/07:30pm NW 6 7 - - - - - - - 29.7 1008.8 0.0
02/07:00pm N 5 7 - - - - - - - 29.7 1008.3 0.0
02/06:30pm NW 7 8 - - - - - - - 30.3 1008.0 0.0
02/06:00pm NW 6 7 - - - - - - - 30.6 1007.7 0.0
02/05:30pm NW 6 7 - - - - - - - 30.9 1007.7 0.0
02/05:00pm NW 6 7 - - - - - - - 31.1 1007.7 0.0
02/04:30pm NNW 7 8 - - - - - - - 31.4 1007.8 0.0
02/04:00pm NW 8 10 - - - - - - - 31.1 1007.7 0.0
02/03:30pm CALM 0 3 - - - - - - - 30.9 1007.8 0.0
02/03:00pm N 9 11 - - - - - - - 31.7 1007.7 0.0
02/02:30pm NNW 7 9 - - - - - - - 31.8 1008.2 0.0
02/02:00pm NNW 7 9 - - - - - - - 31.4 1008.8 0.0
02/01:30pm NNW 7 9 - - - - - - - 31.5 1009.0 0.0
02/01:00pm N 7 8 - - - - - - - 31.5 1009.5 0.0
02/12:30pm N 7 8 - - - - - - - 31.8 1009.8 0.0
02/12:00pm NNE 5 6 - - - - - - - 31.7 1010.5 0.0
02/11:30am NW 5 6 - - - - - - - 31.5 1010.7 0.0
02/11:00am NNE 5 7 - - - - - - - 31.9 1010.9 0.0
02/10:30am ENE 3 5 - - - - - - - 31.6 1011.0 0.0
02/10:00am NE 5 6 - - - - - - - 31.1 1010.9 0.0
02/09:30am NE 5 6 - - - - - - - 30.8 1010.9 0.0
02/09:00am E 1 4 - - - - - - - 30.4 1010.6 0.0
02/08:30am NW 4 5 - - - - - - - 30.1 1010.5 0.0
02/08:00am E 2 4 - - - - - - - 29.7 1010.3 0.0
02/07:30am NW 6 7 - - - - - - - 29.2 1010.1 0.0
02/07:00am N 6 7 - - - - - - - 28.9 1009.9 0.0
02/06:30am NW 4 7 - - - - - - - 28.8 1009.5 0.0
02/06:00am WNW 7 8 - - - - - - - 28.9 1009.0 0.0
02/05:30am WNW 8 9 - - - - - - - 28.9 1008.6 0.0
02/05:00am WNW 8 9 - - - - - - - 28.7 1008.4 0.0
02/04:30am WNW 7 8 - - - - - - - 28.9 1008.4 0.0
02/04:00am WNW 7 9 - - - - - - - 28.8 1008.2 0.0
02/03:30am WNW 8 9 - - - - - - - 29.0 1008.2 0.0
02/03:00am W 8 9 - - - - - - - 28.9 1008.4 0.0
02/02:30am WNW 8 10 - - - - - - - 29.0 1008.3 0.0
02/02:00am NW 9 10 - - - - - - - 29.0 1008.6 0.0
02/01:30am NW 9 11 - - - - - - - 29.1 1008.9 0.0
02/01:00am NW 9 11 - - - - - - - 29.2 1009.2 0.0
02/12:30am NW 9 10 - - - - - - - 29.1 1009.5 0.0

Other formats

Comma delimited format used in spreadsheet applications
http://www.bom.gov.au/fwo/IDD60701/IDD60701.94135.axf

JavaScript Object Notation format (JSON) in row-major order
http://www.bom.gov.au/fwo/IDD60701/IDD60701.94135.json

Data quality

Most of these data are generated automatically and are frequently updated. Quality checks on data are not normally performed. It is possible for incorrect values to appear. Refer to information at About Latest Weather Observations and please check the disclaimer before using these data.